Terminal Aerodrome Forecast
Issued by NWS

Home | Current Version | Previous Version | Text Only | Print | Product List | Glossary On
Versions: 1 2 3 4 5 6 7 8 9 10 11 12 13 14 15 16 17 18 19 20 21 22 23 24 25
000
FTUS41 KBUF 131100
TAFIAG
TAF
KIAG 131120Z 1312/1412 22018G27KT P6SM OVC100
     FM131300 21018G27KT 6SM -SHRA OVC040
     FM131600 22018G27KT P6SM BKN045
     FM131900 24018G26KT P6SM SCT035
     FM132300 23013KT P6SM SCT040
     FM140000 23010KT P6SM BKN040
     FM140700 30004KT P6SM BKN250=

USA.gov is the U.S. government's official web portal to all federal, state and local government web resources and services.